Time;durP1;ratioP1;P1;durP2;ratioP2;P2;SDS_P1;SDS_P2;PMS_P1;PMS_P2;Temp;Humidity;BMP_temperature;BMP_pressure;BME280_temperature;BME280_humidity;BME280_pressure;Samples;Min_cycle;Max_cycle;Signal;HPM_P1;HPM_P2
2022/01/07 00:02:03;;;;;;;13.43;0.95;;;2.90;85.00;;;;;;5066105;28;20056;-80
2022/01/07 00:04:35;;;;;;;14.55;1.45;;;2.80;85.30;;;;;;5068484;28;20522;-80
2022/01/07 00:07:05;;;;;;;10.43;1.88;;;2.80;85.60;;;;;;5071361;28;20052;-80
2022/01/07 00:09:33;;;;;;;10.52;1.20;;;2.70;85.60;;;;;;5071568;28;20041;-79
2022/01/07 00:12:07;;;;;;;6.53;1.20;;;2.60;85.80;;;;;;5054376;28;20052;-79
2022/01/07 00:14:35;;;;;;;6.60;1.58;;;2.60;85.80;;;;;;5071640;28;20403;-80
2022/01/07 00:17:04;;;;;;;7.60;0.80;;;2.60;85.00;;;;;;5070829;28;20552;-80
2022/01/07 00:19:32;;;;;;;9.73;1.08;;;2.70;84.00;;;;;;5069651;28;20056;-80
2022/01/07 00:22:01;;;;;;;9.13;1.30;;;2.80;83.60;;;;;;5071083;28;20055;-80
2022/01/07 00:24:30;;;;;;;3.40;0.65;;;2.80;83.30;;;;;;5054670;28;20060;-80
2022/01/07 00:26:58;;;;;;;6.93;0.95;;;2.80;83.20;;;;;;5079258;28;20044;-80
2022/01/07 00:29:46;;;;;;;6.22;1.25;;;2.80;82.80;;;;;;5069818;28;20067;-79
2022/01/07 00:32:14;;;;;;;4.05;0.55;;;2.80;82.40;;;;;;5054424;28;20392;-80
2022/01/07 00:34:43;;;;;;;7.00;1.98;;;2.80;82.20;;;;;;5067755;28;20048;-80
2022/01/07 00:37:11;;;;;;;9.20;1.42;;;2.80;82.10;;;;;;5072044;28;20052;-79
2022/01/07 00:39:40;;;;;;;10.07;1.83;;;2.80;82.00;;;;;;5067950;28;20069;-80
2022/01/07 00:42:08;;;;;;;10.20;1.52;;;2.80;82.10;;;;;;5054922;28;20068;-80
2022/01/07 00:44:36;;;;;;;10.02;1.58;;;2.70;82.20;;;;;;5066952;28;20056;-80
2022/01/07 00:47:05;;;;;;;5.53;1.60;;;2.70;82.30;;;;;;5067755;28;20055;-79
2022/01/07 00:49:34;;;;;;;6.85;1.20;;;2.70;82.30;;;;;;5077055;28;20052;-80
2022/01/07 00:52:03;;;;;;;11.57;1.40;;;2.70;82.60;;;;;;5090228;28;20044;-80
2022/01/07 00:54:31;;;;;;;10.23;1.15;;;2.60;82.70;;;;;;5077329;28;20431;-80
2022/01/07 00:56:59;;;;;;;10.30;1.65;;;2.50;83.00;;;;;;5082630;28;20059;-80
2022/01/07 00:59:27;;;;;;;8.05;1.05;;;2.40;83.30;;;;;;5090519;28;20052;-79
2022/01/07 01:01:55;;;;;;;11.23;1.10;;;2.30;83.70;;;;;;5091842;28;20388;-79
2022/01/07 01:04:44;;;;;;;7.05;0.93;;;2.20;84.00;;;;;;5090114;28;20036;-79
2022/01/07 01:07:14;;;;;;;4.97;1.40;;;2.10;84.20;;;;;;5077572;28;20526;-78
2022/01/07 01:09:43;;;;;;;9.02;0.98;;;2.00;84.60;;;;;;5089996;28;20396;-79
2022/01/07 01:12:11;;;;;;;6.25;1.17;;;1.90;84.90;;;;;;5083262;28;20044;-79
2022/01/07 01:14:40;;;;;;;9.45;1.63;;;1.90;85.10;;;;;;5088913;28;20052;-80
2022/01/07 01:17:09;;;;;;;11.20;1.55;;;2.00;85.00;;;;;;5085286;28;20048;-80
2022/01/07 01:19:38;;;;;;;3.80;1.02;;;2.00;84.80;;;;;;5090346;28;20043;-80
2022/01/07 01:22:12;;;;;;;7.70;0.98;;;2.10;84.40;;;;;;5072556;28;20048;-80
2022/01/07 01:24:41;;;;;;;9.80;1.10;;;2.20;83.80;;;;;;5073264;28;20523;-79
2022/01/07 01:27:09;;;;;;;10.38;0.95;;;2.30;83.10;;;;;;5074229;28;20040;-80
2022/01/07 01:29:38;;;;;;;9.45;1.08;;;2.30;82.50;;;;;;5081572;28;20055;-80
2022/01/07 01:32:07;;;;;;;9.40;1.20;;;2.50;81.80;;;;;;5066990;28;20040;-80
2022/01/07 01:34:35;;;;;;;13.90;1.50;;;2.60;80.90;;;;;;5081979;28;20503;-80
2022/01/07 01:37:04;;;;;;;4.95;0.95;;;2.60;80.90;;;;;;5085584;28;20044;-80
2022/01/07 01:39:32;;;;;;;4.55;1.00;;;2.70;80.60;;;;;;5082994;28;20057;-79
2022/01/07 01:42:01;;;;;;;3.72;0.60;;;2.80;80.50;;;;;;5059405;28;20067;-78
2022/01/07 01:44:29;;;;;;;9.63;1.30;;;2.80;80.50;;;;;;5080228;28;20064;-80
2022/01/07 01:46:58;;;;;;;6.45;1.27;;;2.80;80.70;;;;;;5087665;28;20055;-79
2022/01/07 01:49:26;;;;;;;4.88;0.75;;;2.90;80.90;;;;;;5084631;28;20059;-80
2022/01/07 01:51:55;;;;;;;5.85;0.95;;;3.00;81.20;;;;;;5087615;28;20041;-80
2022/01/07 01:54:23;;;;;;;4.85;0.50;;;3.00;81.10;;;;;;5077065;28;20059;-79
2022/01/07 01:56:51;;;;;;;3.53;0.65;;;3.10;80.80;;;;;;5079102;28;20051;-79
2022/01/07 01:59:27;;;;;;;4.70;0.60;;;3.20;81.00;;;;;;5073826;28;20056;-79
2022/01/07 02:01:56;;;;;;;3.35;0.47;;;3.20;81.50;;;;;;5089942;28;20438;-79
2022/01/07 02:04:24;;;;;;;5.38;1.00;;;3.10;81.90;;;;;;5069356;28;20048;-79
2022/01/07 02:10:05;;;;;;;5.95;0.80;;;3.00;82.50;;;;;;4121263;23;20730;-78
2022/01/07 02:12:33;;;;;;;8.85;1.02;;;2.80;82.80;;;;;;4830615;29;20058;-77
2022/01/07 02:15:00;;;;;;;6.28;0.68;;;2.70;83.10;;;;;;4840166;29;20527;-77
2022/01/07 02:17:28;;;;;;;3.42;0.82;;;2.70;83.20;;;;;;4852130;29;20060;-79
2022/01/07 02:19:56;;;;;;;4.03;0.70;;;2.60;83.40;;;;;;4851511;29;20397;-77
2022/01/07 02:22:24;;;;;;;8.77;0.80;;;2.50;83.60;;;;;;4856785;29;20073;-77
2022/01/07 02:24:53;;;;;;;5.32;1.02;;;2.50;83.80;;;;;;4861328;29;20056;-77
2022/01/07 02:27:22;;;;;;;5.53;0.80;;;2.40;83.90;;;;;;4845788;29;20057;-77
2022/01/07 02:29:51;;;;;;;6.82;1.15;;;2.30;84.20;;;;;;4849215;29;20061;-77
2022/01/07 02:32:19;;;;;;;7.32;1.00;;;2.20;84.50;;;;;;4848464;29;21281;-77
2022/01/07 02:34:48;;;;;;;11.73;1.17;;;2.10;84.90;;;;;;4849785;29;20409;-77
2022/01/07 02:37:16;;;;;;;9.18;1.35;;;2.00;85.10;;;;;;4843653;29;20045;-77
2022/01/07 02:39:45;;;;;;;6.70;1.00;;;1.90;85.30;;;;;;4855854;29;20050;-77
2022/01/07 02:42:13;;;;;;;5.88;0.90;;;1.90;85.40;;;;;;4849418;29;20061;-77
2022/01/07 02:44:41;;;;;;;12.02;1.30;;;1.90;85.50;;;;;;4835490;29;20045;-77
2022/01/07 02:47:09;;;;;;;7.90;1.00;;;2.00;85.40;;;;;;4850699;29;20058;-77
2022/01/07 02:49:37;;;;;;;10.80;1.60;;;2.00;85.30;;;;;;4849916;29;20049;-77
2022/01/07 02:52:05;;;;;;;10.15;1.42;;;2.00;85.20;;;;;;4851399;29;20058;-77
2022/01/07 02:54:33;;;;;;;8.80;1.23;;;2.10;85.00;;;;;;4849994;29;20058;-77
2022/01/07 02:57:00;;;;;;;9.73;1.27;;;2.10;84.70;;;;;;4835950;29;20065;-77
2022/01/07 02:59:28;;;;;;;5.45;0.82;;;2.20;84.20;;;;;;4834058;29;20320;-77
2022/01/07 03:01:56;;;;;;;5.93;1.20;;;2.30;84.00;;;;;;4851199;29;20064;-77
2022/01/07 03:04:26;;;;;;;7.32;1.30;;;2.20;83.90;;;;;;4851008;29;20058;-77
2022/01/07 03:06:54;;;;;;;10.43;1.13;;;2.20;84.00;;;;;;4850535;29;20053;-77
2022/01/07 03:09:22;;;;;;;10.90;1.23;;;2.10;84.00;;;;;;4849756;29;20053;-77
2022/01/07 03:11:49;;;;;;;7.40;1.10;;;2.10;83.90;;;;;;4840350;29;20317;-77
2022/01/07 03:14:17;;;;;;;6.22;0.98;;;2.10;83.90;;;;;;4854006;29;20432;-77
2022/01/07 03:16:45;;;;;;;7.05;0.88;;;2.20;83.90;;;;;;4858670;29;20049;-78
2022/01/07 03:19:12;;;;;;;8.05;1.30;;;2.20;83.70;;;;;;4857618;29;20536;-77
2022/01/07 03:21:40;;;;;;;5.72;0.85;;;2.30;83.60;;;;;;4857754;29;20050;-77
2022/01/07 03:24:07;;;;;;;10.18;0.80;;;2.30;83.40;;;;;;4851617;29;20049;-78
2022/01/07 03:26:35;;;;;;;2.90;0.40;;;2.30;83.30;;;;;;4860417;29;20057;-77
2022/01/07 03:29:03;;;;;;;3.15;0.68;;;2.30;83.10;;;;;;4858553;29;20080;-78
2022/01/07 03:31:31;;;;;;;6.55;0.75;;;2.40;82.80;;;;;;4848917;29;20049;-77
2022/01/07 03:33:58;;;;;;;6.60;0.57;;;2.40;82.70;;;;;;4843944;29;20046;-78
2022/01/07 03:36:26;;;;;;;4.28;0.60;;;2.40;82.70;;;;;;4848344;29;20058;-78
2022/01/07 03:38:53;;;;;;;2.67;0.45;;;2.40;82.80;;;;;;4849746;29;20058;-78
2022/01/07 03:41:21;;;;;;;3.88;0.40;;;2.30;82.80;;;;;;4848670;29;20050;-77
2022/01/07 03:43:49;;;;;;;3.30;0.40;;;2.40;82.70;;;;;;4847893;29;20057;-77
2022/01/07 03:46:17;;;;;;;3.38;0.60;;;2.40;82.80;;;;;;4848381;29;20098;-77
2022/01/07 03:48:44;;;;;;;5.18;0.80;;;2.40;82.60;;;;;;4850842;29;20068;-77
2022/01/07 03:51:12;;;;;;;7.85;0.80;;;2.40;82.70;;;;;;4849856;29;20037;-77
2022/01/07 03:53:40;;;;;;;6.40;0.68;;;2.40;82.80;;;;;;4848444;29;20048;-76
2022/01/07 03:56:08;;;;;;;4.63;0.85;;;2.30;82.90;;;;;;4849294;29;20057;-76
2022/01/07 03:58:35;;;;;;;4.35;0.80;;;2.30;83.10;;;;;;4848930;29;20061;-76
2022/01/07 04:01:03;;;;;;;5.72;0.55;;;2.30;83.20;;;;;;4849701;29;20417;-79
2022/01/07 04:03:31;;;;;;;5.22;0.98;;;2.30;83.40;;;;;;4852485;29;20060;-76
2022/01/07 04:05:59;;;;;;;7.30;0.93;;;2.30;83.60;;;;;;4849030;29;20050;-77
2022/01/07 04:08:27;;;;;;;6.75;0.95;;;2.30;83.70;;;;;;4852353;29;20049;-77
2022/01/07 04:10:54;;;;;;;4.18;0.63;;;2.20;84.10;;;;;;4852873;29;20064;-77
2022/01/07 04:13:22;;;;;;;5.10;0.75;;;2.20;84.40;;;;;;4850764;29;20037;-77
2022/01/07 04:15:50;;;;;;;5.82;0.70;;;2.20;84.60;;;;;;4849690;29;20057;-77
2022/01/07 04:18:17;;;;;;;5.55;1.27;;;2.20;84.70;;;;;;4849986;29;20053;-77
2022/01/07 04:20:45;;;;;;;10.88;1.20;;;2.10;84.70;;;;;;4847794;29;20045;-77
2022/01/07 04:23:13;;;;;;;8.90;0.70;;;2.10;84.90;;;;;;4851605;29;20045;-77
2022/01/07 04:25:42;;;;;;;12.00;1.08;;;2.10;85.10;;;;;;4852019;29;20408;-77
2022/01/07 04:28:10;;;;;;;7.90;0.95;;;2.10;85.10;;;;;;4840474;29;20049;-77
2022/01/07 04:30:43;;;;;;;7.20;1.23;;;2.20;85.00;;;;;;4842686;29;20064;-77
2022/01/07 04:33:14;;;;;;;8.13;1.15;;;2.10;85.10;;;;;;4856592;29;20053;-78
2022/01/07 04:35:43;;;;;;;6.82;1.23;;;2.10;85.10;;;;;;4848881;29;20061;-78
2022/01/07 04:38:11;;;;;;;8.00;1.15;;;2.00;85.20;;;;;;4852487;29;20069;-77
2022/01/07 04:40:39;;;;;;;10.63;1.08;;;2.00;85.30;;;;;;4848226;29;20568;-77
2022/01/07 04:43:07;;;;;;;7.82;1.17;;;2.00;85.20;;;;;;4855530;29;20086;-77
2022/01/07 04:45:35;;;;;;;12.02;1.27;;;1.90;85.30;;;;;;4849537;29;20042;-77
2022/01/07 04:48:04;;;;;;;10.35;1.33;;;2.00;85.40;;;;;;4844455;29;20053;-77
2022/01/07 04:50:32;;;;;;;10.40;1.30;;;2.00;85.30;;;;;;4844204;29;20490;-78
2022/01/07 04:53:00;;;;;;;13.68;1.52;;;2.00;85.30;;;;;;4849262;29;20438;-78
2022/01/07 04:55:36;;;;;;;7.53;1.13;;;2.00;85.30;;;;;;4830820;29;20054;-78
2022/01/07 04:58:12;;;;;;;10.82;1.50;;;2.00;85.20;;;;;;4851897;29;20053;-77
2022/01/07 05:00:43;;;;;;;6.90;0.68;;;2.00;85.00;;;;;;4848932;29;20500;-78
2022/01/07 05:03:11;;;;;;;5.10;0.80;;;2.10;85.00;;;;;;4848106;29;20049;-77
2022/01/07 05:05:39;;;;;;;4.65;0.77;;;2.10;85.00;;;;;;4849757;29;20056;-77
2022/01/07 05:08:08;;;;;;;9.07;1.10;;;2.10;84.90;;;;;;4848297;29;20049;-78
2022/01/07 05:10:37;;;;;;;12.32;1.40;;;2.10;84.80;;;;;;4848838;29;20050;-78
2022/01/07 05:13:05;;;;;;;6.60;1.15;;;2.20;84.60;;;;;;4847746;29;20046;-77
2022/01/07 05:15:32;;;;;;;13.05;0.98;;;2.20;84.60;;;;;;4846405;29;20442;-77
2022/01/07 05:18:00;;;;;;;5.80;0.95;;;2.20;84.50;;;;;;4851508;29;20050;-77
2022/01/07 05:20:28;;;;;;;7.28;0.70;;;2.30;84.30;;;;;;4841784;29;20062;-77
2022/01/07 05:22:55;;;;;;;10.27;1.70;;;2.30;84.40;;;;;;4844635;29;20053;-77
2022/01/07 05:25:23;;;;;;;9.80;1.10;;;2.20;84.30;;;;;;4854797;29;20069;-77
2022/01/07 05:27:51;;;;;;;9.82;1.45;;;2.20;84.30;;;;;;4845930;29;20065;-77
2022/01/07 05:30:18;;;;;;;11.15;1.27;;;2.20;84.30;;;;;;4829514;29;20076;-77
2022/01/07 05:32:46;;;;;;;12.38;1.52;;;2.20;84.30;;;;;;4827428;29;20038;-77
2022/01/07 05:35:13;;;;;;;7.43;1.20;;;2.30;84.40;;;;;;4859244;29;20053;-77
2022/01/07 05:37:41;;;;;;;9.23;1.30;;;2.30;84.20;;;;;;4830068;29;20058;-77
2022/01/07 05:40:09;;;;;;;10.15;1.48;;;2.40;83.90;;;;;;4859497;29;20052;-77
2022/01/07 05:42:37;;;;;;;9.60;2.00;;;2.50;83.50;;;;;;4846565;29;20053;-77
2022/01/07 05:45:05;;;;;;;11.85;1.23;;;2.50;83.00;;;;;;4834740;29;20077;-77
2022/01/07 05:47:33;;;;;;;10.80;1.13;;;2.60;82.60;;;;;;4861795;29;20062;-77
2022/01/07 05:50:01;;;;;;;4.93;0.80;;;2.60;82.20;;;;;;4849632;29;20046;-77
2022/01/07 05:52:28;;;;;;;7.22;0.65;;;2.60;81.80;;;;;;4860774;29;20053;-77
2022/01/07 05:54:56;;;;;;;4.93;0.57;;;2.60;81.50;;;;;;4843718;29;20050;-77
2022/01/07 05:57:23;;;;;;;3.03;0.63;;;2.70;81.10;;;;;;4843431;29;20057;-77
2022/01/07 05:59:51;;;;;;;3.95;0.60;;;2.70;81.10;;;;;;4843568;29;20061;-77
2022/01/07 06:02:18;;;;;;;4.35;0.73;;;2.70;81.20;;;;;;4837497;29;20050;-77
2022/01/07 06:04:48;;;;;;;7.38;0.70;;;2.70;81.40;;;;;;4831149;29;20057;-77
2022/01/07 06:07:16;;;;;;;4.82;0.73;;;2.70;81.00;;;;;;4828224;29;20049;-77
2022/01/07 06:09:43;;;;;;;4.70;0.60;;;2.70;81.10;;;;;;4843399;29;20056;-77
2022/01/07 06:12:11;;;;;;;6.75;0.57;;;2.80;81.00;;;;;;4841445;29;20088;-77
2022/01/07 06:14:39;;;;;;;3.75;0.50;;;2.70;81.20;;;;;;4858664;29;20057;-77
2022/01/07 06:17:11;;;;;;;5.97;0.95;;;2.70;81.30;;;;;;4854359;29;20053;-77
2022/01/07 06:19:39;;;;;;;4.20;0.40;;;2.70;81.50;;;;;;4854107;29;20068;-77
2022/01/07 06:22:10;;;;;;;2.90;0.65;;;2.60;81.90;;;;;;4859223;29;20352;-77
2022/01/07 06:24:38;;;;;;;3.83;0.50;;;2.50;82.10;;;;;;4844604;29;20057;-77
2022/01/07 06:27:05;;;;;;;2.90;0.70;;;2.30;82.60;;;;;;4857454;29;20054;-76
2022/01/07 06:29:33;;;;;;;4.25;0.57;;;2.30;83.00;;;;;;4843948;29;20056;-77
2022/01/07 06:32:02;;;;;;;6.10;0.98;;;2.20;83.50;;;;;;4852906;29;20525;-77
2022/01/07 06:34:30;;;;;;;7.57;0.60;;;2.20;83.80;;;;;;4851406;29;20057;-77
2022/01/07 06:36:59;;;;;;;4.85;0.45;;;2.20;83.90;;;;;;4854802;29;20054;-77
2022/01/07 06:39:29;;;;;;;4.63;0.50;;;2.20;84.10;;;;;;4852881;29;20050;-77
2022/01/07 06:41:58;;;;;;;5.82;0.70;;;2.20;84.20;;;;;;4859732;29;20521;-77
2022/01/07 06:44:26;;;;;;;2.78;0.47;;;2.20;84.30;;;;;;4854366;29;20046;-77
2022/01/07 06:46:54;;;;;;;3.50;0.47;;;2.30;84.20;;;;;;4854516;29;20057;-77
2022/01/07 06:49:22;;;;;;;2.67;0.65;;;2.30;84.00;;;;;;4856967;29;20046;-77
2022/01/07 06:51:51;;;;;;;3.50;0.60;;;2.20;84.00;;;;;;4833372;29;20639;-77
2022/01/07 06:54:19;;;;;;;4.60;0.73;;;2.20;83.90;;;;;;4843476;29;20054;-77
2022/01/07 06:56:46;;;;;;;1.92;0.50;;;2.30;83.80;;;;;;4852216;29;20053;-77
2022/01/07 06:59:14;;;;;;;5.20;0.50;;;2.30;83.60;;;;;;4858066;29;20061;-76
2022/01/07 07:01:45;;;;;;;1.80;0.45;;;2.40;83.30;;;;;;4855457;29;20049;-76
2022/01/07 07:04:13;;;;;;;3.63;0.65;;;2.40;83.40;;;;;;4838801;29;20521;-77
2022/01/07 07:06:41;;;;;;;3.72;0.47;;;2.50;83.60;;;;;;4853399;29;20493;-77
2022/01/07 07:09:09;;;;;;;5.32;0.63;;;2.50;83.70;;;;;;4841188;29;20398;-77
2022/01/07 07:11:37;;;;;;;7.30;1.02;;;2.60;83.60;;;;;;4859632;29;20061;-77
2022/01/07 07:14:05;;;;;;;2.85;0.55;;;2.60;83.70;;;;;;4812293;29;20054;-77
2022/01/07 07:16:33;;;;;;;4.85;1.00;;;2.60;83.90;;;;;;4861343;29;20068;-78
2022/01/07 07:19:00;;;;;;;3.95;0.70;;;2.60;83.90;;;;;;4841180;29;20183;-76
2022/01/07 07:21:28;;;;;;;3.50;0.45;;;2.60;83.70;;;;;;4831886;29;20053;-76
2022/01/07 07:23:56;;;;;;;7.18;0.57;;;2.70;83.60;;;;;;4856002;29;20057;-76
2022/01/07 07:26:23;;;;;;;6.15;0.70;;;2.70;83.20;;;;;;4853200;29;20057;-76
2022/01/07 07:28:51;;;;;;;4.03;0.35;;;2.70;83.80;;;;;;4845189;29;20045;-76
2022/01/07 07:31:20;;;;;;;2.55;0.70;;;2.70;84.60;;;;;;4835139;29;20060;-77
2022/01/07 07:36:27;;;;;;;3.38;0.90;;;2.30;86.20;;;;;;4849685;29;20050;-78
2022/01/07 07:39:01;;;;;;;3.38;0.47;;;2.10;86.90;;;;;;4843542;29;20054;-78
2022/01/07 07:41:30;;;;;;;3.25;0.52;;;1.90;87.30;;;;;;4825599;29;20681;-78
2022/01/07 07:43:58;;;;;;;4.43;0.43;;;1.90;87.80;;;;;;4858001;29;20049;-78
2022/01/07 07:46:28;;;;;;;4.10;0.50;;;1.80;88.10;;;;;;4847033;29;20218;-78
2022/01/07 07:48:56;;;;;;;5.53;0.45;;;1.70;88.50;;;;;;4860311;29;20053;-78
2022/01/07 07:51:24;;;;;;;5.07;0.63;;;1.70;88.70;;;;;;4836652;29;20053;-78
2022/01/07 07:53:52;;;;;;;5.13;0.55;;;1.80;88.70;;;;;;4860633;29;20050;-78
2022/01/07 07:56:19;;;;;;;7.35;0.95;;;1.70;88.70;;;;;;4832984;29;20053;-78
2022/01/07 07:58:48;;;;;;;6.03;0.50;;;1.60;88.60;;;;;;4861240;29;20053;-78
2022/01/07 08:01:17;;;;;;;6.20;0.90;;;1.50;88.60;;;;;;4857691;29;20064;-78
2022/01/07 08:03:46;;;;;;;8.57;0.90;;;1.50;88.70;;;;;;4860615;29;20124;-77
2022/01/07 08:06:14;;;;;;;10.13;1.17;;;1.50;88.50;;;;;;4841873;29;20544;-78
2022/01/07 08:08:42;;;;;;;9.25;1.35;;;1.60;88.10;;;;;;4860511;29;20444;-78
2022/01/07 08:11:12;;;;;;;7.13;0.93;;;1.60;87.70;;;;;;4836827;29;20050;-78
2022/01/07 08:16:30;;;;;;;10.35;0.82;;;1.50;87.60;;;;;;4858555;29;20045;-78
2022/01/07 08:18:59;;;;;;;3.55;0.60;;;1.50;87.40;;;;;;4857833;29;20065;-77
2022/01/07 08:21:29;;;;;;;3.53;0.50;;;1.50;87.40;;;;;;4848000;29;20061;-77
2022/01/07 08:23:57;;;;;;;5.55;0.93;;;1.60;87.40;;;;;;4857323;29;20069;-78
2022/01/07 08:26:25;;;;;;;5.45;0.60;;;1.50;87.40;;;;;;4848913;29;20049;-77
2022/01/07 08:29:00;;;;;;;6.25;1.10;;;1.50;87.50;;;;;;4853911;29;20047;-78
2022/01/07 08:37:03;;;;;;;6.75;0.88;;;1.30;87.80;;;;;;4865314;29;20041;-78
2022/01/07 08:39:31;;;;;;;8.75;1.40;;;1.40;88.00;;;;;;4841686;29;20061;-77
2022/01/07 08:41:58;;;;;;;13.23;1.58;;;1.40;88.00;;;;;;4853590;29;20053;-78
2022/01/07 08:44:26;;;;;;;5.75;0.85;;;1.30;87.90;;;;;;4860141;29;20049;-78
2022/01/07 08:46:54;;;;;;;5.53;0.90;;;1.30;88.00;;;;;;4858441;29;20057;-78
2022/01/07 08:49:22;;;;;;;6.75;0.85;;;1.30;88.20;;;;;;4859751;29;20509;-77
2022/01/07 08:51:49;;;;;;;5.43;1.00;;;1.20;88.20;;;;;;4847722;29;20042;-78
2022/01/07 08:54:17;;;;;;;8.88;1.25;;;1.30;88.10;;;;;;4845251;29;20049;-78
2022/01/07 08:56:45;;;;;;;4.50;0.82;;;1.30;88.00;;;;;;4853757;29;20046;-77
2022/01/07 08:59:12;;;;;;;5.25;0.77;;;1.30;88.00;;;;;;4844619;29;20061;-78
2022/01/07 09:01:40;;;;;;;8.90;1.02;;;1.30;87.90;;;;;;4839769;29;20066;-78
2022/01/07 09:04:08;;;;;;;6.72;0.82;;;1.20;88.10;;;;;;4843481;29;20405;-77
2022/01/07 09:06:36;;;;;;;4.03;0.60;;;1.20;88.30;;;;;;4858463;29;20058;-78
2022/01/07 09:09:04;;;;;;;6.75;0.82;;;1.20;88.30;;;;;;4856315;29;20837;-78
2022/01/07 09:11:31;;;;;;;3.10;0.68;;;1.30;88.30;;;;;;4848474;29;20050;-77
2022/01/07 09:13:59;;;;;;;6.93;0.68;;;1.30;88.00;;;;;;4861599;29;20100;-78
2022/01/07 09:16:27;;;;;;;5.85;1.13;;;1.40;87.70;;;;;;4857374;29;20062;-78
2022/01/07 09:18:55;;;;;;;5.75;0.68;;;1.50;87.50;;;;;;4844866;29;20050;-77
2022/01/07 09:21:22;;;;;;;7.70;1.00;;;1.60;87.30;;;;;;4862968;29;20370;-78
2022/01/07 09:23:50;;;;;;;8.00;1.00;;;1.70;87.10;;;;;;4862334;29;20065;-78
2022/01/07 09:26:18;;;;;;;7.50;0.95;;;1.80;86.90;;;;;;4862608;29;20056;-78
2022/01/07 09:28:46;;;;;;;3.97;0.98;;;1.80;86.60;;;;;;4858585;29;20068;-78
2022/01/07 09:31:14;;;;;;;5.00;0.85;;;1.90;86.30;;;;;;4835663;29;20054;-78
2022/01/07 09:33:41;;;;;;;5.85;1.00;;;2.00;86.10;;;;;;4845675;29;20516;-78
2022/01/07 09:36:29;;;;;;;5.88;0.82;;;2.00;85.90;;;;;;4842712;29;20053;-77
2022/01/07 09:38:57;;;;;;;5.38;0.77;;;2.10;85.40;;;;;;4840716;29;20054;-78
2022/01/07 09:41:25;;;;;;;4.15;0.70;;;2.10;84.90;;;;;;4850259;29;20053;-77
2022/01/07 09:43:53;;;;;;;5.93;1.00;;;2.20;84.70;;;;;;4856937;29;20630;-77
2022/01/07 09:46:22;;;;;;;14.88;1.15;;;2.20;84.50;;;;;;4855408;29;20426;-77
2022/01/07 09:48:50;;;;;;;5.45;1.13;;;2.20;84.20;;;;;;4860375;29;20057;-78
2022/01/07 09:51:17;;;;;;;5.63;1.13;;;2.20;83.70;;;;;;4859935;29;20549;-77
2022/01/07 09:53:45;;;;;;;7.07;1.45;;;2.30;83.70;;;;;;4849176;29;20497;-77
2022/01/07 09:56:13;;;;;;;7.03;1.25;;;2.20;83.60;;;;;;4862509;29;20046;-77
2022/01/07 09:58:40;;;;;;;9.07;0.93;;;2.20;83.20;;;;;;4853522;29;20052;-77
2022/01/07 10:01:09;;;;;;;8.20;0.93;;;2.20;82.90;;;;;;4860578;29;20096;-77
2022/01/07 10:03:42;;;;;;;7.97;0.65;;;2.30;83.10;;;;;;4857544;29;20549;-77
2022/01/07 10:06:23;;;;;;;7.88;1.00;;;2.30;83.20;;;;;;4859900;29;20049;-77
2022/01/07 10:09:10;;;;;;;6.78;1.00;;;2.30;82.90;;;;;;4847146;29;20049;-78
2022/01/07 10:11:38;;;;;;;5.18;1.42;;;2.30;83.00;;;;;;4850404;29;20062;-79
2022/01/07 10:14:21;;;;;;;6.38;1.17;;;2.30;83.20;;;;;;4849945;29;20058;-79
2022/01/07 10:16:58;;;;;;;8.52;0.73;;;2.30;83.10;;;;;;4846855;29;20053;-76
2022/01/07 10:19:43;;;;;;;5.93;0.85;;;2.30;83.10;;;;;;4841666;29;20062;-80
2022/01/07 10:22:14;;;;;;;5.25;0.80;;;2.40;83.10;;;;;;4842906;29;20062;-77
2022/01/07 10:25:03;;;;;;;7.30;0.90;;;2.40;82.70;;;;;;4843847;29;20057;-77
2022/01/07 10:27:37;;;;;;;6.90;1.08;;;2.50;82.70;;;;;;4842717;29;20135;-78
2022/01/07 10:30:16;;;;;;;8.38;0.80;;;2.60;82.70;;;;;;4844086;29;20058;-77
2022/01/07 10:32:45;;;;;;;4.70;0.95;;;2.70;82.60;;;;;;4844803;29;20042;-77
2022/01/07 10:35:17;;;;;;;6.18;1.30;;;2.70;81.80;;;;;;4861711;29;20050;-76
2022/01/07 10:37:59;;;;;;;3.00;0.50;;;2.80;81.70;;;;;;4860929;29;20049;-76
2022/01/07 10:40:32;;;;;;;4.05;0.65;;;3.00;81.00;;;;;;4857819;29;20421;-76
2022/01/07 10:43:15;;;;;;;2.95;0.47;;;3.00;80.40;;;;;;4842536;29;20171;-76
2022/01/07 10:45:50;;;;;;;5.68;0.82;;;3.20;79.60;;;;;;4842503;29;20054;-76
2022/01/07 10:48:20;;;;;;;2.78;0.40;;;3.30;79.30;;;;;;4850971;29;20049;-76
2022/01/07 10:50:53;;;;;;;3.80;0.57;;;3.30;79.10;;;;;;4849432;29;20137;-77
2022/01/07 10:53:23;;;;;;;2.78;0.98;;;3.30;79.10;;;;;;4853545;29;20046;-78
2022/01/07 10:55:56;;;;;;;3.08;0.60;;;3.30;79.00;;;;;;4850980;29;20066;-78
2022/01/07 10:58:26;;;;;;;2.53;0.88;;;3.30;79.00;;;;;;4843458;29;20052;-78
2022/01/07 11:00:54;;;;;;;6.63;0.73;;;3.30;79.40;;;;;;4851052;29;20501;-78
2022/01/07 11:03:22;;;;;;;5.00;0.82;;;3.30;79.30;;;;;;4850446;29;20041;-78
2022/01/07 11:05:49;;;;;;;3.13;0.88;;;3.30;79.20;;;;;;4847492;29;20054;-78
2022/01/07 11:08:17;;;;;;;6.40;1.00;;;3.30;79.20;;;;;;4846088;29;20066;-78
2022/01/07 11:10:45;;;;;;;5.38;0.70;;;3.40;79.20;;;;;;4856934;29;20050;-78
2022/01/07 11:13:13;;;;;;;4.88;0.45;;;3.40;79.10;;;;;;4845376;29;20061;-79
2022/01/07 11:15:41;;;;;;;5.05;0.80;;;3.50;78.80;;;;;;4843890;29;20053;-78
2022/01/07 11:18:09;;;;;;;5.22;0.80;;;3.60;78.50;;;;;;4856539;29;20053;-77
2022/01/07 11:20:38;;;;;;;6.60;0.82;;;3.80;78.40;;;;;;4843080;29;20402;-78
2022/01/07 11:23:06;;;;;;;4.43;0.50;;;3.80;78.20;;;;;;4843167;29;20050;-77
2022/01/07 11:25:36;;;;;;;5.78;1.02;;;3.80;78.00;;;;;;4845637;29;20399;-78
2022/01/07 11:28:04;;;;;;;8.27;0.88;;;3.90;78.00;;;;;;4826266;29;20053;-78
2022/01/07 11:30:33;;;;;;;4.13;0.90;;;3.90;77.90;;;;;;4856690;29;20057;-76
2022/01/07 11:33:13;;;;;;;3.08;1.05;;;3.90;77.60;;;;;;4825952;29;20054;-76
2022/01/07 11:35:44;;;;;;;4.72;0.88;;;3.80;77.50;;;;;;4840937;29;20053;-77
2022/01/07 11:38:31;;;;;;;5.78;1.00;;;3.90;77.40;;;;;;4850083;29;20504;-76
2022/01/07 11:40:59;;;;;;;4.70;0.90;;;3.90;77.00;;;;;;4843879;29;20057;-76
2022/01/07 11:43:33;;;;;;;3.78;0.80;;;3.90;77.30;;;;;;4844074;29;20057;-77
2022/01/07 11:46:21;;;;;;;6.72;0.75;;;3.90;76.80;;;;;;4844341;29;20525;-76
2022/01/07 11:48:49;;;;;;;5.55;0.75;;;3.90;77.00;;;;;;4844260;29;20057;-77
2022/01/07 11:51:17;;;;;;;4.53;0.85;;;3.90;76.90;;;;;;4860065;29;20504;-76
2022/01/07 11:53:48;;;;;;;8.02;0.70;;;3.90;77.00;;;;;;4860037;29;20405;-77
2022/01/07 11:56:21;;;;;;;6.47;0.80;;;3.90;77.00;;;;;;4860538;29;20520;-77
2022/01/07 11:58:56;;;;;;;5.15;0.77;;;3.90;77.30;;;;;;4859402;29;20061;-76
2022/01/07 12:01:36;;;;;;;7.72;1.10;;;4.00;76.60;;;;;;4828879;29;20057;-76
2022/01/07 12:04:13;;;;;;;7.13;0.80;;;4.00;76.90;;;;;;4860571;29;20069;-76
2022/01/07 12:06:41;;;;;;;3.30;0.57;;;4.10;76.50;;;;;;4860637;29;20057;-76
2022/01/07 12:09:21;;;;;;;3.53;0.73;;;4.20;76.40;;;;;;4858847;29;20049;-76
2022/01/07 12:12:01;;;;;;;5.50;0.80;;;4.30;75.60;;;;;;4873680;29;20057;-76
2022/01/07 12:14:39;;;;;;;4.70;0.80;;;4.30;75.40;;;;;;4860150;29;20438;-76
2022/01/07 12:17:13;;;;;;;5.95;0.70;;;4.30;75.30;;;;;;4859122;29;20071;-77
2022/01/07 12:19:42;;;;;;;6.75;1.02;;;4.20;75.40;;;;;;4859179;29;20038;-76
2022/01/07 12:22:11;;;;;;;5.20;0.85;;;4.20;75.30;;;;;;4858395;29;20529;-76
2022/01/07 12:24:38;;;;;;;6.97;1.02;;;4.10;75.60;;;;;;4859619;29;20049;-77
2022/01/07 12:27:20;;;;;;;7.93;1.15;;;4.10;75.60;;;;;;4854644;29;20054;-77
2022/01/07 12:29:53;;;;;;;8.98;0.88;;;4.10;75.70;;;;;;4860198;29;20049;-77
2022/01/07 12:32:32;;;;;;;4.07;0.98;;;4.10;76.10;;;;;;4855707;29;20053;-76
2022/01/07 12:35:00;;;;;;;4.82;0.77;;;4.10;75.90;;;;;;4859057;29;20050;-77
2022/01/07 12:37:28;;;;;;;1.83;0.65;;;4.10;75.80;;;;;;4859697;29;20060;-77
2022/01/07 12:40:01;;;;;;;12.93;2.13;;;4.10;75.80;;;;;;4859904;29;20041;-76
2022/01/07 12:42:30;;;;;;;6.15;1.52;;;4.10;75.80;;;;;;4859472;29;20057;-76
2022/01/07 12:44:59;;;;;;;7.93;0.95;;;4.10;75.70;;;;;;4853097;29;20053;-76
2022/01/07 12:47:29;;;;;;;5.35;1.08;;;4.10;75.90;;;;;;4840100;29;20390;-76
2022/01/07 12:49:58;;;;;;;3.97;1.02;;;4.10;75.80;;;;;;4844440;29;20045;-76
2022/01/07 12:52:26;;;;;;;9.15;1.20;;;4.10;75.70;;;;;;4859575;29;20053;-76
2022/01/07 12:55:07;;;;;;;4.03;1.00;;;4.10;75.80;;;;;;4849649;29;20067;-76
2022/01/07 12:58:04;;;;;;;4.55;0.60;;;4.10;75.90;;;;;;4859043;29;20045;-75
2022/01/07 13:00:36;;;;;;;9.05;0.75;;;4.10;76.00;;;;;;4845364;29;20080;-76
2022/01/07 13:03:10;;;;;;;5.28;1.10;;;4.20;75.50;;;;;;4857166;29;20056;-77
2022/01/07 13:05:41;;;;;;;7.65;0.82;;;4.20;75.50;;;;;;4846936;29;20548;-76
2022/01/07 13:08:10;;;;;;;10.60;1.83;;;4.30;75.40;;;;;;4859241;29;20056;-75
2022/01/07 13:10:40;;;;;;;3.80;0.77;;;4.30;75.00;;;;;;4858334;29;20401;-77
2022/01/07 13:13:15;;;;;;;7.25;0.77;;;4.30;74.80;;;;;;4859149;29;20053;-76
2022/01/07 13:15:54;;;;;;;3.47;0.57;;;4.30;75.10;;;;;;4834432;29;20058;-77
2022/01/07 13:18:29;;;;;;;7.60;1.10;;;4.20;75.50;;;;;;4846806;29;20077;-77
2022/01/07 13:21:05;;;;;;;8.57;1.05;;;4.20;75.60;;;;;;4824748;29;20058;-77
2022/01/07 13:23:36;;;;;;;7.00;1.52;;;4.20;75.40;;;;;;4841159;29;20050;-77